createdAt,value
2022-12-27T00:00:10.337Z,4.43
2022-12-27T00:02:38.348Z,4.40
2022-12-27T00:05:05.264Z,6.40
2022-12-27T00:07:31.548Z,5.00
2022-12-27T00:09:59.018Z,4.50
2022-12-27T00:12:26.359Z,6.40
2022-12-27T00:14:52.723Z,4.90
2022-12-27T00:17:19.039Z,5.07
2022-12-27T00:19:45.353Z,4.87
2022-12-27T00:22:11.660Z,4.53
2022-12-27T00:24:38.017Z,5.23
2022-12-27T00:27:04.348Z,6.23
2022-12-27T00:29:30.676Z,6.03
2022-12-27T00:31:57.009Z,4.20
2022-12-27T00:34:23.303Z,3.60
2022-12-27T00:36:49.586Z,5.27
2022-12-27T00:39:15.939Z,5.07
2022-12-27T00:41:42.233Z,4.87
2022-12-27T00:44:08.751Z,4.40
2022-12-27T00:46:48.522Z,6.47
2022-12-27T00:49:14.854Z,4.93
2022-12-27T00:51:41.187Z,3.80
2022-12-27T00:54:07.612Z,4.83
2022-12-27T00:56:33.958Z,4.23
2022-12-27T00:59:01.509Z,4.27
2022-12-27T01:01:30.402Z,3.50
2022-12-27T01:03:57.699Z,4.67
2022-12-27T01:06:26.318Z,4.73
2022-12-27T01:08:52.609Z,4.10
2022-12-27T01:11:19.021Z,5.57
2022-12-27T01:13:45.470Z,4.67
2022-12-27T01:16:13.460Z,6.03
2022-12-27T01:18:39.777Z,4.07
2022-12-27T01:21:07.308Z,5.10
2022-12-27T01:23:33.937Z,4.03
2022-12-27T01:26:01.248Z,4.37
2022-12-27T01:28:27.673Z,5.37
2022-12-27T01:30:53.980Z,4.17
2022-12-27T01:33:20.264Z,4.57
2022-12-27T01:35:47.430Z,4.70
2022-12-27T01:38:13.753Z,5.87
2022-12-27T01:40:40.030Z,5.57
2022-12-27T01:43:06.329Z,5.90
2022-12-27T01:45:33.856Z,4.47
2022-12-27T01:48:21.397Z,6.40
2022-12-27T01:50:51.294Z,4.27
2022-12-27T01:53:19.791Z,4.60
2022-12-27T01:55:54.125Z,4.63
2022-12-27T01:58:28.844Z,4.13
2022-12-27T02:00:56.189Z,4.97
2022-12-27T02:03:29.133Z,6.70
2022-12-27T02:05:56.050Z,4.47
2022-12-27T02:08:28.296Z,4.67
2022-12-27T02:10:54.980Z,4.63
2022-12-27T02:13:21.538Z,3.97
2022-12-27T02:15:47.887Z,4.47
2022-12-27T02:18:14.505Z,3.50
2022-12-27T02:20:58.643Z,3.97
2022-12-27T02:23:51.233Z,4.77
2022-12-27T02:26:27.078Z,3.70
2022-12-27T02:29:02.369Z,4.60
2022-12-27T02:31:31.557Z,3.67
2022-12-27T02:33:58.441Z,4.17
2022-12-27T02:36:27.234Z,3.97
2022-12-27T02:38:56.718Z,4.57
2022-12-27T02:41:42.378Z,5.40
2022-12-27T02:47:12.295Z,3.43
2022-12-27T02:50:00.058Z,3.20
2022-12-27T02:52:52.719Z,3.70
2022-12-27T02:55:27.876Z,3.00
2022-12-27T03:00:41.872Z,3.30
2022-12-27T03:03:28.621Z,4.83
2022-12-27T03:06:33.210Z,4.37
2022-12-27T03:09:11.759Z,3.70
2022-12-27T03:12:08.104Z,2.30
2022-12-27T03:15:03.046Z,4.33
2022-12-27T03:17:34.172Z,2.83
2022-12-27T03:20:22.548Z,4.63
2022-12-27T03:23:08.515Z,3.93
2022-12-27T03:25:36.111Z,3.87
2022-12-27T03:28:41.574Z,5.63
2022-12-27T03:31:52.763Z,6.60
2022-12-27T03:34:31.959Z,3.53
2022-12-27T03:37:19.520Z,3.90
2022-12-27T03:39:56.568Z,4.80
2022-12-27T03:42:45.726Z,3.47
2022-12-27T03:45:12.051Z,4.20
2022-12-27T03:47:38.359Z,4.63
2022-12-27T03:50:08.859Z,7.60
2022-12-27T03:52:38.110Z,4.67
2022-12-27T03:55:04.791Z,4.97
2022-12-27T03:57:31.473Z,5.53
2022-12-27T03:59:57.808Z,4.63
2022-12-27T04:02:24.317Z,5.93
2022-12-27T04:04:50.841Z,4.63
2022-12-27T04:07:17.228Z,6.00
2022-12-27T04:10:02.142Z,5.83
2022-12-27T04:12:47.177Z,6.07
2022-12-27T04:15:32.442Z,6.63
2022-12-27T04:18:17.388Z,6.18
2022-12-27T04:21:02.608Z,5.15
2022-12-27T04:23:47.480Z,4.28
2022-12-27T04:26:32.512Z,4.82
2022-12-27T04:29:17.609Z,5.90
2022-12-27T04:32:02.759Z,4.93
2022-12-27T04:34:44.409Z,2.95
2022-12-27T04:37:11.997Z,4.23
2022-12-27T04:39:38.364Z,5.13
2022-12-27T04:42:23.474Z,4.03
2022-12-27T04:45:14.980Z,3.97
2022-12-27T04:48:00.545Z,4.03
2022-12-27T04:50:47.151Z,4.22
2022-12-27T04:53:35.410Z,3.27
2022-12-27T04:56:01.847Z,4.30
2022-12-27T04:58:28.218Z,4.27
2022-12-27T05:01:14.466Z,6.03
2022-12-27T05:03:41.351Z,3.83
2022-12-27T05:06:07.781Z,5.47
2022-12-27T05:08:52.796Z,4.97
2022-12-27T05:11:37.801Z,4.72
2022-12-27T05:14:05.632Z,3.72
2022-12-27T05:16:34.827Z,3.87
2022-12-27T05:19:01.396Z,4.87
2022-12-27T05:21:27.936Z,4.23
2022-12-27T05:24:12.806Z,5.17
2022-12-27T05:26:39.448Z,4.68
2022-12-27T05:29:06.688Z,6.13
2022-12-27T05:31:33.181Z,4.37
2022-12-27T05:33:59.540Z,4.43
2022-12-27T05:36:26.704Z,3.53
2022-12-27T05:38:53.237Z,3.90
2022-12-27T05:41:19.716Z,3.73
2022-12-27T05:43:46.107Z,5.37
2022-12-27T05:46:16.847Z,5.83
2022-12-27T05:48:43.537Z,4.97
2022-12-27T05:51:12.462Z,4.27
2022-12-27T05:53:38.829Z,5.77
2022-12-27T05:56:05.247Z,6.00
2022-12-27T05:58:31.557Z,4.77
2022-12-27T06:00:58.087Z,5.97
2022-12-27T06:03:24.816Z,4.37
2022-12-27T06:05:51.210Z,5.13
2022-12-27T06:08:17.543Z,4.77
2022-12-27T06:10:43.956Z,5.97
2022-12-27T06:13:10.331Z,6.27
2022-12-27T06:15:37.078Z,5.73
2022-12-27T06:18:03.636Z,5.90
2022-12-27T06:20:30.289Z,5.07
2022-12-27T06:22:58.503Z,5.07
2022-12-27T06:25:24.802Z,6.53
2022-12-27T06:27:51.141Z,6.53
2022-12-27T06:30:17.468Z,7.77
2022-12-27T06:32:43.799Z,8.00
2022-12-27T06:35:11.222Z,7.13
2022-12-27T06:37:37.577Z,7.03
2022-12-27T06:40:04.123Z,6.90
2022-12-27T06:42:30.930Z,6.77
2022-12-27T06:44:57.224Z,6.77
2022-12-27T06:47:23.521Z,5.17
2022-12-27T06:49:49.873Z,6.63
2022-12-27T06:52:16.221Z,5.30
2022-12-27T06:54:43.054Z,4.73
2022-12-27T06:57:09.378Z,6.10
2022-12-27T06:59:35.699Z,6.20
2022-12-27T07:02:02.248Z,6.07
2022-12-27T07:04:28.708Z,5.13
2022-12-27T07:06:55.012Z,4.20
2022-12-27T07:09:21.302Z,6.20
2022-12-27T07:11:47.671Z,4.67
2022-12-27T07:14:14.037Z,5.43
2022-12-27T07:16:40.404Z,4.90
2022-12-27T07:19:06.721Z,4.13
2022-12-27T07:21:33.123Z,4.07
2022-12-27T07:23:59.525Z,4.30
2022-12-27T07:26:30.137Z,4.63
2022-12-27T07:28:57.775Z,5.37
2022-12-27T07:31:26.355Z,4.63
2022-12-27T07:33:53.077Z,4.13
2022-12-27T07:36:21.057Z,4.93
2022-12-27T07:38:47.625Z,4.13
2022-12-27T07:41:14.152Z,4.40
2022-12-27T07:43:40.819Z,4.97
2022-12-27T07:46:09.062Z,4.73
2022-12-27T07:48:35.791Z,4.77
2022-12-27T07:51:02.316Z,4.63
2022-12-27T07:53:29.129Z,4.13
2022-12-27T07:55:55.583Z,4.53
2022-12-27T07:58:21.866Z,4.80
2022-12-27T08:00:49.091Z,4.30
2022-12-27T08:03:15.467Z,4.40
2022-12-27T08:05:49.487Z,4.57
2022-12-27T08:08:16.673Z,4.40
2022-12-27T08:10:43.086Z,4.30
2022-12-27T08:13:09.516Z,5.30
2022-12-27T08:15:37.452Z,4.87
2022-12-27T08:18:04.157Z,4.50
2022-12-27T08:20:30.808Z,5.07
2022-12-27T08:22:57.127Z,6.17
2022-12-27T08:25:23.516Z,4.40
2022-12-27T08:27:49.892Z,4.67
2022-12-27T08:30:16.210Z,4.53
2022-12-27T08:32:42.550Z,4.10
2022-12-27T08:35:41.925Z,3.97
2022-12-27T08:37:55.308Z,6.87
2022-12-27T08:40:21.936Z,5.00
2022-12-27T08:42:48.579Z,6.00
2022-12-27T08:45:14.923Z,5.67
2022-12-27T08:47:41.230Z,5.83
2022-12-27T08:50:07.972Z,5.33
2022-12-27T08:52:34.377Z,5.30
2022-12-27T08:55:01.032Z,6.37
2022-12-27T08:57:27.905Z,4.63
2022-12-27T08:59:54.331Z,5.60
2022-12-27T09:02:20.778Z,5.80
2022-12-27T09:04:47.186Z,5.60
2022-12-27T09:07:13.504Z,5.17
2022-12-27T09:09:39.970Z,5.63
2022-12-27T09:12:09.276Z,6.83
2022-12-27T09:14:35.927Z,6.43
2022-12-27T09:17:02.275Z,5.73
2022-12-27T09:19:28.552Z,6.03
2022-12-27T09:21:54.871Z,6.70
2022-12-27T09:24:21.258Z,7.50
2022-12-27T09:26:47.672Z,6.60
2022-12-27T09:29:13.974Z,6.17
2022-12-27T09:31:40.328Z,6.03
2022-12-27T09:34:06.652Z,6.10
2022-12-27T09:36:33.039Z,7.70
2022-12-27T09:38:59.616Z,6.93
2022-12-27T09:42:25.678Z,6.30
2022-12-27T09:44:23.207Z,7.07
2022-12-27T09:46:56.836Z,5.33
2022-12-27T09:49:28.391Z,7.27
2022-12-27T09:51:57.896Z,5.90
2022-12-27T09:54:26.718Z,8.13
2022-12-27T09:57:18.891Z,6.33
2022-12-27T09:59:42.598Z,6.23
2022-12-27T10:02:19.702Z,9.03
2022-12-27T10:05:18.728Z,7.10
2022-12-27T10:07:38.568Z,7.53
2022-12-27T10:10:09.791Z,7.37
2022-12-27T10:12:36.116Z,8.77
2022-12-27T10:15:21.602Z,6.97
2022-12-27T10:17:53.235Z,8.15
2022-12-27T10:20:22.981Z,9.10
2022-12-27T10:22:49.317Z,8.30
2022-12-27T10:25:18.631Z,8.13
2022-12-27T10:27:46.819Z,9.53
2022-12-27T10:30:20.291Z,9.17
2022-12-27T10:32:47.036Z,8.83
2022-12-27T10:35:15.300Z,8.97
2022-12-27T10:37:42.049Z,8.97
2022-12-27T10:40:11.545Z,7.73
2022-12-27T10:42:41.569Z,10.27
2022-12-27T10:45:26.849Z,10.63
2022-12-27T10:47:54.591Z,7.95
2022-12-27T10:50:21.972Z,9.27
2022-12-27T10:52:51.488Z,10.67
2022-12-27T10:55:33.364Z,9.50
2022-12-27T10:57:59.703Z,9.83
2022-12-27T11:00:26.305Z,10.33
2022-12-27T11:02:54.253Z,12.77
2022-12-27T11:05:28.099Z,12.60
2022-12-27T11:07:54.683Z,14.70
2022-12-27T11:10:25.706Z,18.83
2022-12-27T11:12:54.999Z,15.70
2022-12-27T11:15:21.364Z,15.13
2022-12-27T11:17:49.631Z,14.27
2022-12-27T11:20:29.949Z,12.17
2022-12-27T11:22:56.247Z,14.57
2022-12-27T11:25:22.741Z,12.67
2022-12-27T11:27:51.099Z,11.90
2022-12-27T11:30:43.810Z,11.07
2022-12-27T11:33:37.541Z,12.67
2022-12-27T11:36:04.697Z,11.47
2022-12-27T11:38:33.098Z,13.03
2022-12-27T11:41:07.300Z,11.47
2022-12-27T11:43:37.243Z,9.97
2022-12-27T11:46:05.639Z,13.47
2022-12-27T11:48:40.759Z,14.60
2022-12-27T11:51:07.108Z,10.52
2022-12-27T11:53:56.203Z,9.97
2022-12-27T11:56:24.803Z,11.50
2022-12-27T11:58:51.070Z,15.60
2022-12-27T12:01:34.495Z,12.10
2022-12-27T12:04:19.586Z,12.60
2022-12-27T12:07:04.610Z,16.63
2022-12-27T12:09:49.808Z,11.88
2022-12-27T12:12:16.170Z,8.30
2022-12-27T12:14:42.622Z,9.17
2022-12-27T12:17:17.705Z,10.67
2022-12-27T12:19:53.250Z,10.30
2022-12-27T12:22:19.582Z,10.27
2022-12-27T12:24:49.080Z,9.40
2022-12-27T12:27:18.189Z,13.47
2022-12-27T12:29:44.476Z,11.83
2022-12-27T12:32:10.935Z,12.00
2022-12-27T12:34:43.418Z,12.50
2022-12-27T12:37:15.814Z,12.90
2022-12-27T12:39:57.803Z,14.97
2022-12-27T12:42:42.707Z,12.00
2022-12-27T12:45:11.915Z,14.60
2022-12-27T12:47:44.897Z,13.07
2022-12-27T12:50:13.649Z,14.60
2022-12-27T12:52:49.193Z,11.40
2022-12-27T12:55:28.007Z,11.03
2022-12-27T12:58:05.762Z,11.87
2022-12-27T13:00:39.401Z,10.93
2022-12-27T13:03:08.918Z,13.53
2022-12-27T13:05:43.401Z,12.20
2022-12-27T13:08:15.752Z,16.00
2022-12-27T13:10:57.341Z,10.07
2022-12-27T13:13:39.509Z,11.73
2022-12-27T13:16:08.663Z,8.97
2022-12-27T13:18:54.031Z,10.53
2022-12-27T13:21:33.725Z,10.30
2022-12-27T13:24:09.092Z,13.30
2022-12-27T13:26:54.066Z,11.50
2022-12-27T13:29:39.029Z,12.30
2022-12-27T13:32:13.278Z,11.98
2022-12-27T13:34:58.873Z,9.60
2022-12-27T13:39:54.351Z,9.93
2022-12-27T13:42:21.336Z,7.80
2022-12-27T13:44:50.867Z,8.37
2022-12-27T13:47:55.847Z,8.77
2022-12-27T13:50:36.735Z,10.50
2022-12-27T13:53:21.582Z,10.43
2022-12-27T13:55:53.785Z,8.40
2022-12-27T13:58:33.675Z,11.30
2022-12-27T14:01:15.207Z,9.97
2022-12-27T14:03:50.375Z,7.70
2022-12-27T14:06:16.671Z,8.15
2022-12-27T14:09:01.713Z,7.70
2022-12-27T14:11:46.488Z,8.95
2022-12-27T14:14:14.848Z,7.80
2022-12-27T14:16:47.866Z,8.73
2022-12-27T14:19:14.208Z,8.07
2022-12-27T14:21:50.084Z,8.97
2022-12-27T14:24:16.400Z,9.63
2022-12-27T14:27:14.612Z,9.23
2022-12-27T14:29:40.920Z,8.30
2022-12-27T14:32:13.494Z,9.33
2022-12-27T14:34:59.825Z,9.73
2022-12-27T14:37:32.489Z,9.40
2022-12-27T14:40:16.725Z,8.83
2022-12-27T14:42:45.789Z,9.30
2022-12-27T14:45:24.617Z,9.97
2022-12-27T14:48:09.705Z,9.80
2022-12-27T14:50:51.067Z,9.95
2022-12-27T14:53:26.592Z,9.10
2022-12-27T14:55:55.707Z,10.60
2022-12-27T14:58:35.759Z,9.50
2022-12-27T15:01:04.990Z,9.87
2022-12-27T15:03:40.851Z,7.83
2022-12-27T15:06:17.034Z,9.40
2022-12-27T15:08:43.347Z,8.13
2022-12-27T15:11:12.590Z,8.73
2022-12-27T15:13:38.889Z,9.17
2022-12-27T15:16:08.836Z,8.97
2022-12-27T15:18:38.011Z,9.27
2022-12-27T15:21:10.268Z,11.03
2022-12-27T15:23:48.690Z,10.53
2022-12-27T15:26:20.515Z,9.53
2022-12-27T15:28:51.401Z,10.50
2022-12-27T15:31:17.752Z,9.73
2022-12-27T15:34:02.874Z,8.37
2022-12-27T15:36:46.030Z,8.32
2022-12-27T15:39:31.689Z,8.83
2022-12-27T15:44:42.945Z,7.87
2022-12-27T15:47:09.259Z,6.95
2022-12-27T15:49:47.839Z,6.53
2022-12-27T15:52:23.380Z,6.93
2022-12-27T15:54:55.456Z,7.70
2022-12-27T15:57:40.220Z,5.93
2022-12-27T16:00:06.609Z,8.15
2022-12-27T16:02:36.535Z,7.00
2022-12-27T16:05:25.636Z,8.07
2022-12-27T16:08:00.873Z,7.70
2022-12-27T16:12:54.820Z,7.27
2022-12-27T16:15:40.944Z,6.03
2022-12-27T16:18:31.085Z,6.43
2022-12-27T16:20:59.267Z,5.57
2022-12-27T16:23:27.730Z,6.90
2022-12-27T16:26:00.649Z,6.50
2022-12-27T16:28:29.166Z,7.30
2022-12-27T16:30:56.522Z,7.33
2022-12-27T16:33:33.407Z,7.87
2022-12-27T16:36:11.758Z,7.90
2022-12-27T16:38:39.469Z,6.87
2022-12-27T16:41:24.693Z,11.00
2022-12-27T16:43:59.996Z,7.15
2022-12-27T16:46:44.770Z,6.10
2022-12-27T16:49:29.968Z,10.15
2022-12-27T16:52:15.343Z,6.80
2022-12-27T16:55:00.516Z,6.82
2022-12-27T16:57:26.771Z,7.95
2022-12-27T17:00:05.618Z,7.77
2022-12-27T17:02:41.791Z,9.60
2022-12-27T17:05:17.096Z,10.70
2022-12-27T17:10:24.898Z,5.03
2022-12-27T17:12:57.150Z,7.80
2022-12-27T17:15:24.095Z,7.40
2022-12-27T17:17:53.531Z,10.23
2022-12-27T17:20:21.271Z,11.43
2022-12-27T17:22:48.412Z,8.67
2022-12-27T17:25:15.491Z,10.50
2022-12-27T17:27:46.553Z,8.23
2022-12-27T17:30:20.440Z,6.33
2022-12-27T17:32:46.706Z,9.63
2022-12-27T17:35:28.726Z,8.00
2022-12-27T17:38:12.066Z,11.90
2022-12-27T17:40:43.335Z,8.23
2022-12-27T17:43:41.001Z,8.57
2022-12-27T17:46:10.412Z,8.77
2022-12-27T17:48:37.129Z,7.97
2022-12-27T17:51:11.019Z,18.83
2022-12-27T17:54:04.038Z,12.00
2022-12-27T17:56:49.789Z,8.17
2022-12-27T17:59:26.338Z,8.43
2022-12-27T18:01:55.022Z,12.60
2022-12-27T18:04:24.038Z,11.20
2022-12-27T18:06:53.831Z,12.97
2022-12-27T18:09:30.905Z,10.47
2022-12-27T18:11:57.279Z,13.40
2022-12-27T18:14:23.720Z,8.67
2022-12-27T18:16:50.224Z,11.27
2022-12-27T18:19:18.409Z,10.23
2022-12-27T18:21:54.547Z,10.30
2022-12-27T18:24:25.737Z,7.57
2022-12-27T18:26:59.429Z,10.30
2022-12-27T18:29:25.746Z,11.07
2022-12-27T18:31:52.945Z,7.63
2022-12-27T18:34:31.405Z,12.03
2022-12-27T18:37:02.078Z,9.37
2022-12-27T18:39:32.733Z,6.43
2022-12-27T18:42:00.591Z,9.53
2022-12-27T18:44:28.459Z,10.87
2022-12-27T18:47:00.508Z,9.97
2022-12-27T18:49:31.608Z,7.77
2022-12-27T18:51:58.145Z,6.37
2022-12-27T18:54:27.520Z,7.03
2022-12-27T18:56:54.707Z,6.97
2022-12-27T18:59:23.077Z,8.23
2022-12-27T19:01:49.561Z,7.00
2022-12-27T19:04:19.066Z,9.03
2022-12-27T19:06:48.160Z,8.27
2022-12-27T19:09:16.581Z,6.73
2022-12-27T19:11:49.541Z,7.00
2022-12-27T19:14:15.853Z,4.47
2022-12-27T19:16:48.017Z,9.97
2022-12-27T19:19:20.472Z,6.03
2022-12-27T19:21:46.768Z,5.97
2022-12-27T19:24:30.644Z,8.50
2022-12-27T19:27:00.711Z,7.90
2022-12-27T19:29:28.527Z,9.07
2022-12-27T19:31:58.004Z,5.93
2022-12-27T19:34:26.039Z,5.93
2022-12-27T19:36:53.320Z,7.90
2022-12-27T19:39:25.217Z,7.27
2022-12-27T19:41:52.173Z,8.37
2022-12-27T19:44:18.900Z,5.40
2022-12-27T19:46:45.472Z,6.73
2022-12-27T19:51:58.473Z,6.13
2022-12-27T19:54:24.976Z,5.67
2022-12-27T19:56:51.614Z,5.20
2022-12-27T19:59:22.412Z,7.47
2022-12-27T20:01:48.982Z,4.97
2022-12-27T20:04:16.009Z,7.77
2022-12-27T20:06:43.088Z,5.23
2022-12-27T20:09:12.984Z,7.07
2022-12-27T20:11:39.537Z,7.53
2022-12-27T20:14:05.879Z,7.80
2022-12-27T20:16:32.405Z,6.40
2022-12-27T20:18:58.781Z,7.03
2022-12-27T20:21:25.122Z,5.97
2022-12-27T20:23:51.833Z,6.03
2022-12-27T20:26:19.795Z,6.20
2022-12-27T20:28:46.242Z,4.73
2022-12-27T20:31:14.107Z,4.93
2022-12-27T20:33:40.616Z,5.73
2022-12-27T20:36:07.699Z,4.83
2022-12-27T20:38:34.123Z,5.87
2022-12-27T20:41:10.099Z,5.97
2022-12-27T20:43:36.530Z,7.10
2022-12-27T20:46:10.948Z,4.50
2022-12-27T20:48:41.066Z,8.57
2022-12-27T20:51:08.534Z,4.30
2022-12-27T20:53:35.279Z,5.07
2022-12-27T20:56:02.180Z,5.07
2022-12-27T20:58:28.741Z,6.50
2022-12-27T21:00:55.195Z,5.07
2022-12-27T21:03:21.819Z,4.77
2022-12-27T21:05:48.328Z,5.53
2022-12-27T21:08:14.895Z,6.77
2022-12-27T21:10:41.289Z,6.73
2022-12-27T21:13:07.820Z,7.63
2022-12-27T21:15:40.417Z,6.13
2022-12-27T21:18:08.649Z,5.10
2022-12-27T21:20:35.002Z,4.73
2022-12-27T21:23:01.267Z,5.67
2022-12-27T21:25:27.581Z,4.33
2022-12-27T21:27:53.908Z,8.17
2022-12-27T21:30:20.290Z,6.13
2022-12-27T21:32:47.335Z,8.53
2022-12-27T21:35:13.647Z,8.50
2022-12-27T21:37:39.962Z,10.40
2022-12-27T21:40:06.619Z,8.90
2022-12-27T21:42:32.952Z,7.40
2022-12-27T21:44:59.288Z,9.70
2022-12-27T21:47:26.184Z,7.90
2022-12-27T21:49:52.527Z,6.20
2022-12-27T21:52:18.820Z,8.53
2022-12-27T21:54:45.124Z,7.40
2022-12-27T21:57:11.488Z,8.53
2022-12-27T21:59:37.801Z,5.00
2022-12-27T22:02:04.324Z,8.13
2022-12-27T22:04:30.653Z,7.63
2022-12-27T22:06:56.958Z,8.63
2022-12-27T22:09:23.941Z,9.23
2022-12-27T22:11:50.352Z,9.10
2022-12-27T22:14:16.811Z,8.33
2022-12-27T22:16:43.276Z,9.43
2022-12-27T22:19:10.874Z,8.20
2022-12-27T22:21:37.662Z,7.53
2022-12-27T22:24:04.606Z,8.90
2022-12-27T22:26:33.213Z,11.53
2022-12-27T22:28:59.553Z,8.20
2022-12-27T22:31:30.029Z,8.40
2022-12-27T22:33:56.652Z,10.23
2022-12-27T22:36:23.941Z,8.20
2022-12-27T22:38:50.837Z,9.30
2022-12-27T22:41:18.864Z,7.60
2022-12-27T22:43:49.286Z,10.37
2022-12-27T22:46:15.589Z,7.50
2022-12-27T22:48:41.977Z,10.03
2022-12-27T22:51:09.331Z,7.20
2022-12-27T22:53:35.678Z,9.67
2022-12-27T22:56:02.124Z,8.57
2022-12-27T22:58:29.312Z,6.30
2022-12-27T23:00:56.060Z,10.80
2022-12-27T23:03:22.428Z,10.17
2022-12-27T23:05:59.093Z,6.10
2022-12-27T23:08:25.795Z,9.70
2022-12-27T23:10:52.127Z,5.87
2022-12-27T23:13:22.208Z,9.33
2022-12-27T23:15:55.822Z,8.90
2022-12-27T23:18:22.323Z,8.50
2022-12-27T23:21:21.594Z,7.03
2022-12-27T23:23:35.883Z,7.23
2022-12-27T23:26:06.720Z,8.27
2022-12-27T23:28:36.904Z,7.97
2022-12-27T23:31:04.188Z,8.07
2022-12-27T23:33:30.737Z,8.23
2022-12-27T23:35:57.370Z,11.23
2022-12-27T23:38:23.698Z,7.33
2022-12-27T23:40:53.735Z,7.90
2022-12-27T23:43:51.126Z,8.17
2022-12-27T23:46:07.493Z,8.47
2022-12-27T23:48:33.861Z,7.87
2022-12-27T23:51:00.146Z,7.20
2022-12-27T23:53:26.449Z,8.80
2022-12-27T23:56:00.090Z,7.67
2022-12-27T23:58:26.529Z,7.67
